sensor_id;sensor_type;location;lat;lon;timestamp;temperature;humidity
24814;DHT22;12904;50.088;11.414;2022-07-29T00:02:14;17.20;76.80
24814;DHT22;12904;50.088;11.414;2022-07-29T00:04:39;17.20;77.80
24814;DHT22;12904;50.088;11.414;2022-07-29T00:07:05;17.10;80.70
24814;DHT22;12904;50.088;11.414;2022-07-29T00:09:31;17.10;83.70
24814;DHT22;12904;50.088;11.414;2022-07-29T00:11:59;17.00;86.20
24814;DHT22;12904;50.088;11.414;2022-07-29T00:14:26;17.00;89.10
24814;DHT22;12904;50.088;11.414;2022-07-29T00:16:51;17.00;90.50
24814;DHT22;12904;50.088;11.414;2022-07-29T00:19:17;17.00;91.90
24814;DHT22;12904;50.088;11.414;2022-07-29T00:21:43;16.90;93.50
24814;DHT22;12904;50.088;11.414;2022-07-29T00:24:09;16.90;94.70
24814;DHT22;12904;50.088;11.414;2022-07-29T00:26:34;16.90;96.10
24814;DHT22;12904;50.088;11.414;2022-07-29T00:29:01;16.90;98.70
24814;DHT22;12904;50.088;11.414;2022-07-29T00:31:27;16.80;99.90
24814;DHT22;12904;50.088;11.414;2022-07-29T00:33:53;16.80;99.90
24814;DHT22;12904;50.088;11.414;2022-07-29T00:36:19;16.70;99.90
24814;DHT22;12904;50.088;11.414;2022-07-29T00:38:50;16.70;99.90
24814;DHT22;12904;50.088;11.414;2022-07-29T00:41:17;16.60;99.90
24814;DHT22;12904;50.088;11.414;2022-07-29T00:43:43;16.60;99.90
24814;DHT22;12904;50.088;11.414;2022-07-29T00:46:09;16.50;99.90
24814;DHT22;12904;50.088;11.414;2022-07-29T00:48:35;16.50;99.90
24814;DHT22;12904;50.088;11.414;2022-07-29T00:51:02;16.40;99.90
24814;DHT22;12904;50.088;11.414;2022-07-29T00:53:29;16.40;99.90
24814;DHT22;12904;50.088;11.414;2022-07-29T00:55:56;16.40;99.90
24814;DHT22;12904;50.088;11.414;2022-07-29T00:58:23;16.30;99.90
24814;DHT22;12904;50.088;11.414;2022-07-29T01:00:49;16.30;99.90
24814;DHT22;12904;50.088;11.414;2022-07-29T01:03:14;16.30;99.90
24814;DHT22;12904;50.088;11.414;2022-07-29T01:05:43;16.30;99.90
24814;DHT22;12904;50.088;11.414;2022-07-29T01:08:11;16.40;99.90
24814;DHT22;12904;50.088;11.414;2022-07-29T01:10:38;16.30;99.90
24814;DHT22;12904;50.088;11.414;2022-07-29T01:13:05;16.40;99.90
24814;DHT22;12904;50.088;11.414;2022-07-29T01:15:31;16.40;99.90
24814;DHT22;12904;50.088;11.414;2022-07-29T01:29:44;16.20;99.90
24814;DHT22;12904;50.088;11.414;2022-07-29T01:32:14;16.20;99.90
24814;DHT22;12904;50.088;11.414;2022-07-29T01:34:48;16.20;99.90
24814;DHT22;12904;50.088;11.414;2022-07-29T01:37:22;16.10;99.90
24814;DHT22;12904;50.088;11.414;2022-07-29T01:39:52;16.10;99.90
24814;DHT22;12904;50.088;11.414;2022-07-29T01:44:55;16.10;99.90
24814;DHT22;12904;50.088;11.414;2022-07-29T01:47:27;16.10;99.90
24814;DHT22;12904;50.088;11.414;2022-07-29T01:49:56;16.10;99.90
24814;DHT22;12904;50.088;11.414;2022-07-29T01:52:28;16.00;99.90
24814;DHT22;12904;50.088;11.414;2022-07-29T01:54:59;16.00;99.90
24814;DHT22;12904;50.088;11.414;2022-07-29T01:57:29;16.00;99.90
24814;DHT22;12904;50.088;11.414;2022-07-29T01:59:58;16.00;99.90
24814;DHT22;12904;50.088;11.414;2022-07-29T02:02:26;16.00;99.90
24814;DHT22;12904;50.088;11.414;2022-07-29T02:04:53;16.00;99.90
24814;DHT22;12904;50.088;11.414;2022-07-29T02:07:22;16.00;99.90
24814;DHT22;12904;50.088;11.414;2022-07-29T02:09:50;16.00;99.90
24814;DHT22;12904;50.088;11.414;2022-07-29T02:12:18;16.00;99.90
24814;DHT22;12904;50.088;11.414;2022-07-29T02:14:50;16.00;99.90
24814;DHT22;12904;50.088;11.414;2022-07-29T02:17:27;15.90;99.90
24814;DHT22;12904;50.088;11.414;2022-07-29T02:19:59;15.90;99.90
24814;DHT22;12904;50.088;11.414;2022-07-29T02:22:29;15.90;99.90
24814;DHT22;12904;50.088;11.414;2022-07-29T02:24:55;15.90;99.90
24814;DHT22;12904;50.088;11.414;2022-07-29T02:27:22;15.80;99.90
24814;DHT22;12904;50.088;11.414;2022-07-29T02:29:49;15.80;99.90
24814;DHT22;12904;50.088;11.414;2022-07-29T02:32:16;15.80;99.90
24814;DHT22;12904;50.088;11.414;2022-07-29T02:34:43;15.70;99.90
24814;DHT22;12904;50.088;11.414;2022-07-29T02:37:11;15.70;99.90
24814;DHT22;12904;50.088;11.414;2022-07-29T02:39:40;15.70;99.90
24814;DHT22;12904;50.088;11.414;2022-07-29T02:42:11;15.70;99.90
24814;DHT22;12904;50.088;11.414;2022-07-29T02:44:37;15.60;99.90
24814;DHT22;12904;50.088;11.414;2022-07-29T02:47:40;15.60;99.90
24814;DHT22;12904;50.088;11.414;2022-07-29T02:50:12;15.50;99.90
24814;DHT22;12904;50.088;11.414;2022-07-29T02:52:44;15.40;99.90
24814;DHT22;12904;50.088;11.414;2022-07-29T02:55:25;15.30;99.90
24814;DHT22;12904;50.088;11.414;2022-07-29T02:58:01;15.30;99.90
24814;DHT22;12904;50.088;11.414;2022-07-29T03:00:30;15.20;99.90
24814;DHT22;12904;50.088;11.414;2022-07-29T03:03:00;15.20;99.90
24814;DHT22;12904;50.088;11.414;2022-07-29T03:05:27;15.20;99.90
24814;DHT22;12904;50.088;11.414;2022-07-29T03:07:57;15.20;99.90
24814;DHT22;12904;50.088;11.414;2022-07-29T03:10:25;15.10;99.90
24814;DHT22;12904;50.088;11.414;2022-07-29T03:12:51;15.10;99.90
24814;DHT22;12904;50.088;11.414;2022-07-29T03:15:18;15.10;99.90
24814;DHT22;12904;50.088;11.414;2022-07-29T03:17:44;15.00;99.90
24814;DHT22;12904;50.088;11.414;2022-07-29T03:20:11;15.00;99.90
24814;DHT22;12904;50.088;11.414;2022-07-29T03:22:41;15.00;99.90
24814;DHT22;12904;50.088;11.414;2022-07-29T03:25:17;14.90;99.90
24814;DHT22;12904;50.088;11.414;2022-07-29T03:27:43;14.90;99.90
24814;DHT22;12904;50.088;11.414;2022-07-29T03:30:10;14.90;99.90
24814;DHT22;12904;50.088;11.414;2022-07-29T03:32:36;14.90;99.90
24814;DHT22;12904;50.088;11.414;2022-07-29T03:35:02;14.90;99.90
24814;DHT22;12904;50.088;11.414;2022-07-29T03:37:28;15.00;99.90
24814;DHT22;12904;50.088;11.414;2022-07-29T03:39:56;15.00;99.90
24814;DHT22;12904;50.088;11.414;2022-07-29T03:42:26;15.10;99.90
24814;DHT22;12904;50.088;11.414;2022-07-29T03:44:54;15.10;99.90
24814;DHT22;12904;50.088;11.414;2022-07-29T03:47:23;15.10;99.90
24814;DHT22;12904;50.088;11.414;2022-07-29T03:49:53;15.10;99.90
24814;DHT22;12904;50.088;11.414;2022-07-29T03:52:20;15.10;99.90
24814;DHT22;12904;50.088;11.414;2022-07-29T03:54:46;15.10;99.90
24814;DHT22;12904;50.088;11.414;2022-07-29T03:57:13;15.10;99.90
24814;DHT22;12904;50.088;11.414;2022-07-29T03:59:39;15.10;99.90
24814;DHT22;12904;50.088;11.414;2022-07-29T04:02:09;15.10;99.90
24814;DHT22;12904;50.088;11.414;2022-07-29T04:04:36;15.10;99.90
24814;DHT22;12904;50.088;11.414;2022-07-29T04:07:03;15.10;99.90
24814;DHT22;12904;50.088;11.414;2022-07-29T04:09:29;15.10;99.90
24814;DHT22;12904;50.088;11.414;2022-07-29T04:11:55;15.10;99.90
24814;DHT22;12904;50.088;11.414;2022-07-29T04:14:21;15.10;99.90
24814;DHT22;12904;50.088;11.414;2022-07-29T04:16:47;15.20;99.90
24814;DHT22;12904;50.088;11.414;2022-07-29T04:19:12;15.10;99.90
24814;DHT22;12904;50.088;11.414;2022-07-29T04:21:41;15.20;99.90
24814;DHT22;12904;50.088;11.414;2022-07-29T04:24:07;15.20;99.90
24814;DHT22;12904;50.088;11.414;2022-07-29T04:26:34;15.20;99.90
24814;DHT22;12904;50.088;11.414;2022-07-29T04:29:00;15.20;99.90
24814;DHT22;12904;50.088;11.414;2022-07-29T04:31:26;15.20;99.90
24814;DHT22;12904;50.088;11.414;2022-07-29T04:33:52;15.20;99.90
24814;DHT22;12904;50.088;11.414;2022-07-29T04:36:17;15.10;99.90
24814;DHT22;12904;50.088;11.414;2022-07-29T04:38:43;15.20;99.90
24814;DHT22;12904;50.088;11.414;2022-07-29T04:41:08;15.20;99.90
24814;DHT22;12904;50.088;11.414;2022-07-29T04:43:35;15.30;99.90
24814;DHT22;12904;50.088;11.414;2022-07-29T04:46:01;15.30;99.90
24814;DHT22;12904;50.088;11.414;2022-07-29T04:48:27;15.40;99.90
24814;DHT22;12904;50.088;11.414;2022-07-29T04:50:53;15.40;99.90
24814;DHT22;12904;50.088;11.414;2022-07-29T04:53:19;15.50;99.90
24814;DHT22;12904;50.088;11.414;2022-07-29T04:55:45;15.50;99.90
24814;DHT22;12904;50.088;11.414;2022-07-29T04:58:11;15.60;99.90
24814;DHT22;12904;50.088;11.414;2022-07-29T05:00:36;15.60;99.90
24814;DHT22;12904;50.088;11.414;2022-07-29T05:03:03;15.60;99.90
24814;DHT22;12904;50.088;11.414;2022-07-29T05:05:28;15.60;99.90
24814;DHT22;12904;50.088;11.414;2022-07-29T05:07:54;15.70;99.90
24814;DHT22;12904;50.088;11.414;2022-07-29T05:10:20;15.70;99.90
24814;DHT22;12904;50.088;11.414;2022-07-29T05:12:46;15.80;99.90
24814;DHT22;12904;50.088;11.414;2022-07-29T05:15:12;15.80;99.90
24814;DHT22;12904;50.088;11.414;2022-07-29T05:17:38;16.00;99.90
24814;DHT22;12904;50.088;11.414;2022-07-29T05:20:04;16.10;99.90
24814;DHT22;12904;50.088;11.414;2022-07-29T05:22:30;16.20;99.90
24814;DHT22;12904;50.088;11.414;2022-07-29T05:24:56;16.30;99.90
24814;DHT22;12904;50.088;11.414;2022-07-29T05:27:21;16.30;99.90
24814;DHT22;12904;50.088;11.414;2022-07-29T05:29:47;16.40;99.90
24814;DHT22;12904;50.088;11.414;2022-07-29T05:32:13;16.40;99.90
24814;DHT22;12904;50.088;11.414;2022-07-29T05:34:40;16.50;99.90
24814;DHT22;12904;50.088;11.414;2022-07-29T05:37:05;16.60;99.90
24814;DHT22;12904;50.088;11.414;2022-07-29T05:39:31;16.70;99.90
24814;DHT22;12904;50.088;11.414;2022-07-29T05:41:57;16.80;99.90
24814;DHT22;12904;50.088;11.414;2022-07-29T05:44:25;16.80;99.90
24814;DHT22;12904;50.088;11.414;2022-07-29T05:46:51;16.70;99.90
24814;DHT22;12904;50.088;11.414;2022-07-29T05:49:17;16.70;99.90
24814;DHT22;12904;50.088;11.414;2022-07-29T05:51:43;16.70;99.90
24814;DHT22;12904;50.088;11.414;2022-07-29T05:54:09;17.10;99.90
24814;DHT22;12904;50.088;11.414;2022-07-29T05:56:36;18.30;99.90
24814;DHT22;12904;50.088;11.414;2022-07-29T05:59:03;19.90;95.60
24814;DHT22;12904;50.088;11.414;2022-07-29T06:01:29;21.60;86.00
24814;DHT22;12904;50.088;11.414;2022-07-29T06:03:54;23.20;74.50
24814;DHT22;12904;50.088;11.414;2022-07-29T06:06:20;24.60;69.20
24814;DHT22;12904;50.088;11.414;2022-07-29T06:08:46;25.80;62.70
24814;DHT22;12904;50.088;11.414;2022-07-29T06:11:11;26.70;59.70
24814;DHT22;12904;50.088;11.414;2022-07-29T06:13:37;27.30;56.20
24814;DHT22;12904;50.088;11.414;2022-07-29T06:16:03;28.20;54.70
24814;DHT22;12904;50.088;11.414;2022-07-29T06:18:29;28.90;52.60
24814;DHT22;12904;50.088;11.414;2022-07-29T06:20:55;29.70;51.60
24814;DHT22;12904;50.088;11.414;2022-07-29T06:23:20;30.60;49.40
24814;DHT22;12904;50.088;11.414;2022-07-29T06:25:46;31.30;48.40
24814;DHT22;12904;50.088;11.414;2022-07-29T06:28:12;31.90;46.90
24814;DHT22;12904;50.088;11.414;2022-07-29T06:30:39;32.60;44.90
24814;DHT22;12904;50.088;11.414;2022-07-29T06:33:05;33.70;43.90
24814;DHT22;12904;50.088;11.414;2022-07-29T06:35:33;34.40;42.80
24814;DHT22;12904;50.088;11.414;2022-07-29T06:38:00;34.80;41.30
24814;DHT22;12904;50.088;11.414;2022-07-29T06:40:26;35.10;39.00
24814;DHT22;12904;50.088;11.414;2022-07-29T06:43:24;35.20;37.90
24814;DHT22;12904;50.088;11.414;2022-07-29T06:45:50;35.70;38.50
24814;DHT22;12904;50.088;11.414;2022-07-29T06:48:15;35.90;37.80
24814;DHT22;12904;50.088;11.414;2022-07-29T06:50:41;36.70;37.20
24814;DHT22;12904;50.088;11.414;2022-07-29T06:53:06;37.00;37.10
24814;DHT22;12904;50.088;11.414;2022-07-29T06:55:32;37.20;36.20
24814;DHT22;12904;50.088;11.414;2022-07-29T06:57:58;37.70;35.30
24814;DHT22;12904;50.088;11.414;2022-07-29T07:00:23;37.80;35.00
24814;DHT22;12904;50.088;11.414;2022-07-29T07:02:49;37.80;35.00
24814;DHT22;12904;50.088;11.414;2022-07-29T07:05:15;37.90;35.10
24814;DHT22;12904;50.088;11.414;2022-07-29T07:07:40;38.50;34.40
24814;DHT22;12904;50.088;11.414;2022-07-29T07:10:06;38.40;34.80
24814;DHT22;12904;50.088;11.414;2022-07-29T07:12:32;38.90;34.10
24814;DHT22;12904;50.088;11.414;2022-07-29T07:14:58;39.20;33.60
24814;DHT22;12904;50.088;11.414;2022-07-29T07:17:23;39.00;32.90
24814;DHT22;12904;50.088;11.414;2022-07-29T07:19:49;38.60;33.70
24814;DHT22;12904;50.088;11.414;2022-07-29T07:22:15;38.60;33.40
24814;DHT22;12904;50.088;11.414;2022-07-29T07:24:40;39.20;33.30
24814;DHT22;12904;50.088;11.414;2022-07-29T07:27:06;39.20;32.20
24814;DHT22;12904;50.088;11.414;2022-07-29T07:29:32;39.60;32.60
24814;DHT22;12904;50.088;11.414;2022-07-29T07:31:58;38.50;32.30
24814;DHT22;12904;50.088;11.414;2022-07-29T07:34:26;38.10;33.80
24814;DHT22;12904;50.088;11.414;2022-07-29T07:36:52;37.70;33.50
24814;DHT22;12904;50.088;11.414;2022-07-29T07:39:17;37.70;34.30
24814;DHT22;12904;50.088;11.414;2022-07-29T07:41:43;38.50;33.60
24814;DHT22;12904;50.088;11.414;2022-07-29T07:44:09;37.90;33.20
24814;DHT22;12904;50.088;11.414;2022-07-29T07:46:34;37.50;33.70
24814;DHT22;12904;50.088;11.414;2022-07-29T07:49:00;38.20;34.20
24814;DHT22;12904;50.088;11.414;2022-07-29T07:51:26;38.20;32.90
24814;DHT22;12904;50.088;11.414;2022-07-29T07:53:52;37.30;33.80
24814;DHT22;12904;50.088;11.414;2022-07-29T07:56:17;37.70;34.30
24814;DHT22;12904;50.088;11.414;2022-07-29T07:58:43;38.40;33.60
24814;DHT22;12904;50.088;11.414;2022-07-29T08:01:09;39.20;32.50
24814;DHT22;12904;50.088;11.414;2022-07-29T08:03:35;39.50;31.80
24814;DHT22;12904;50.088;11.414;2022-07-29T08:06:01;39.20;32.00
24814;DHT22;12904;50.088;11.414;2022-07-29T08:08:27;38.90;32.70
24814;DHT22;12904;50.088;11.414;2022-07-29T08:10:53;39.10;33.40
24814;DHT22;12904;50.088;11.414;2022-07-29T08:13:20;39.60;32.90
24814;DHT22;12904;50.088;11.414;2022-07-29T08:15:46;39.50;31.20
24814;DHT22;12904;50.088;11.414;2022-07-29T08:18:13;39.30;32.10
24814;DHT22;12904;50.088;11.414;2022-07-29T08:20:39;38.70;31.10
24814;DHT22;12904;50.088;11.414;2022-07-29T08:23:07;38.30;33.70
24814;DHT22;12904;50.088;11.414;2022-07-29T08:25:37;38.10;33.30
24814;DHT22;12904;50.088;11.414;2022-07-29T08:28:04;37.70;33.40
24814;DHT22;12904;50.088;11.414;2022-07-29T08:30:30;37.60;33.60
24814;DHT22;12904;50.088;11.414;2022-07-29T08:32:58;36.80;33.60
24814;DHT22;12904;50.088;11.414;2022-07-29T08:35:24;36.20;35.40
24814;DHT22;12904;50.088;11.414;2022-07-29T08:37:50;35.30;36.00
24814;DHT22;12904;50.088;11.414;2022-07-29T08:40:16;35.20;37.30
24814;DHT22;12904;50.088;11.414;2022-07-29T08:42:42;35.00;37.40
24814;DHT22;12904;50.088;11.414;2022-07-29T08:45:08;35.40;37.00
24814;DHT22;12904;50.088;11.414;2022-07-29T08:47:35;36.10;37.10
24814;DHT22;12904;50.088;11.414;2022-07-29T08:50:05;36.80;36.10
24814;DHT22;12904;50.088;11.414;2022-07-29T08:52:33;37.30;35.40
24814;DHT22;12904;50.088;11.414;2022-07-29T08:55:01;37.90;34.70
24814;DHT22;12904;50.088;11.414;2022-07-29T08:57:28;37.30;34.60
24814;DHT22;12904;50.088;11.414;2022-07-29T08:59:54;36.10;35.70
24814;DHT22;12904;50.088;11.414;2022-07-29T09:02:21;35.50;37.60
24814;DHT22;12904;50.088;11.414;2022-07-29T09:04:48;35.30;38.60
24814;DHT22;12904;50.088;11.414;2022-07-29T09:07:18;35.20;38.50
24814;DHT22;12904;50.088;11.414;2022-07-29T09:09:44;36.00;38.80
24814;DHT22;12904;50.088;11.414;2022-07-29T09:12:11;36.10;36.90
24814;DHT22;12904;50.088;11.414;2022-07-29T09:14:38;35.50;38.20
24814;DHT22;12904;50.088;11.414;2022-07-29T09:17:04;35.00;39.10
24814;DHT22;12904;50.088;11.414;2022-07-29T09:19:32;34.80;39.30
24814;DHT22;12904;50.088;11.414;2022-07-29T09:22:02;34.60;39.70
24814;DHT22;12904;50.088;11.414;2022-07-29T09:24:45;34.30;40.10
24814;DHT22;12904;50.088;11.414;2022-07-29T09:27:25;34.80;39.70
24814;DHT22;12904;50.088;11.414;2022-07-29T09:30:07;34.80;39.50
24814;DHT22;12904;50.088;11.414;2022-07-29T09:32:57;34.10;40.60
24814;DHT22;12904;50.088;11.414;2022-07-29T09:35:25;34.40;42.00
24814;DHT22;12904;50.088;11.414;2022-07-29T09:37:51;34.10;40.30
24814;DHT22;12904;50.088;11.414;2022-07-29T09:40:18;34.60;41.90
24814;DHT22;12904;50.088;11.414;2022-07-29T09:42:44;35.00;40.20
24814;DHT22;12904;50.088;11.414;2022-07-29T09:45:11;33.90;41.10
24814;DHT22;12904;50.088;11.414;2022-07-29T09:47:46;33.90;41.50
24814;DHT22;12904;50.088;11.414;2022-07-29T09:50:14;34.70;41.30
24814;DHT22;12904;50.088;11.414;2022-07-29T09:52:49;35.00;41.00
24814;DHT22;12904;50.088;11.414;2022-07-29T09:55:15;34.80;41.70
24814;DHT22;12904;50.088;11.414;2022-07-29T09:57:41;34.80;41.70
24814;DHT22;12904;50.088;11.414;2022-07-29T10:00:12;34.80;40.80
24814;DHT22;12904;50.088;11.414;2022-07-29T10:02:40;33.90;42.60
24814;DHT22;12904;50.088;11.414;2022-07-29T10:05:26;34.00;42.40
24814;DHT22;12904;50.088;11.414;2022-07-29T10:07:57;34.50;43.10
24814;DHT22;12904;50.088;11.414;2022-07-29T10:10:30;34.90;41.20
24814;DHT22;12904;50.088;11.414;2022-07-29T10:13:04;34.80;41.80
24814;DHT22;12904;50.088;11.414;2022-07-29T10:15:33;35.80;40.90
24814;DHT22;12904;50.088;11.414;2022-07-29T10:18:03;36.40;40.80
24814;DHT22;12904;50.088;11.414;2022-07-29T10:20:29;36.20;39.50
24814;DHT22;12904;50.088;11.414;2022-07-29T10:22:55;36.10;39.60
24814;DHT22;12904;50.088;11.414;2022-07-29T10:25:21;36.20;39.50
24814;DHT22;12904;50.088;11.414;2022-07-29T10:27:48;36.30;39.50
24814;DHT22;12904;50.088;11.414;2022-07-29T10:30:17;36.60;39.20
24814;DHT22;12904;50.088;11.414;2022-07-29T10:36:42;36.00;39.80
24814;DHT22;12904;50.088;11.414;2022-07-29T10:43:07;36.50;39.10
24814;DHT22;12904;50.088;11.414;2022-07-29T10:45:40;36.60;39.20
24814;DHT22;12904;50.088;11.414;2022-07-29T10:48:06;35.70;39.20
24814;DHT22;12904;50.088;11.414;2022-07-29T10:53:21;36.40;38.70
24814;DHT22;12904;50.088;11.414;2022-07-29T10:55:47;36.80;39.50
24814;DHT22;12904;50.088;11.414;2022-07-29T10:58:20;37.10;38.30
24814;DHT22;12904;50.088;11.414;2022-07-29T11:00:51;35.80;39.50
24814;DHT22;12904;50.088;11.414;2022-07-29T11:06:07;33.40;43.30
24814;DHT22;12904;50.088;11.414;2022-07-29T11:08:33;33.40;43.50
24814;DHT22;12904;50.088;11.414;2022-07-29T11:13:53;34.50;42.50
24814;DHT22;12904;50.088;11.414;2022-07-29T11:16:21;35.00;41.60
24814;DHT22;12904;50.088;11.414;2022-07-29T11:21:41;34.00;43.60
24814;DHT22;12904;50.088;11.414;2022-07-29T11:24:15;32.90;45.90
24814;DHT22;12904;50.088;11.414;2022-07-29T11:26:42;31.80;49.20
24814;DHT22;12904;50.088;11.414;2022-07-29T11:31:45;29.90;57.50
24814;DHT22;12904;50.088;11.414;2022-07-29T11:34:28;28.70;63.60
24814;DHT22;12904;50.088;11.414;2022-07-29T11:39:37;26.40;75.40
24814;DHT22;12904;50.088;11.414;2022-07-29T11:45:08;24.80;88.70
24814;DHT22;12904;50.088;11.414;2022-07-29T11:47:39;24.40;91.20
24814;DHT22;12904;50.088;11.414;2022-07-29T11:50:11;24.30;93.80
24814;DHT22;12904;50.088;11.414;2022-07-29T11:52:39;24.40;93.90
24814;DHT22;12904;50.088;11.414;2022-07-29T11:55:11;24.70;94.30
24814;DHT22;12904;50.088;11.414;2022-07-29T11:57:45;25.10;92.10
24814;DHT22;12904;50.088;11.414;2022-07-29T12:00:12;25.50;91.70
24814;DHT22;12904;50.088;11.414;2022-07-29T12:02:45;26.00;89.00
24814;DHT22;12904;50.088;11.414;2022-07-29T12:05:11;26.10;82.70
24814;DHT22;12904;50.088;11.414;2022-07-29T12:07:38;26.40;84.70
24814;DHT22;12904;50.088;11.414;2022-07-29T12:10:05;26.40;83.40
24814;DHT22;12904;50.088;11.414;2022-07-29T12:12:31;26.30;84.50
24814;DHT22;12904;50.088;11.414;2022-07-29T12:14:57;26.00;87.20
24814;DHT22;12904;50.088;11.414;2022-07-29T12:17:33;25.80;89.70
24814;DHT22;12904;50.088;11.414;2022-07-29T12:20:00;25.70;91.30
24814;DHT22;12904;50.088;11.414;2022-07-29T12:22:33;25.60;92.00
24814;DHT22;12904;50.088;11.414;2022-07-29T12:25:04;25.60;92.10
24814;DHT22;12904;50.088;11.414;2022-07-29T12:27:31;25.70;92.40
24814;DHT22;12904;50.088;11.414;2022-07-29T12:29:59;25.80;90.70
24814;DHT22;12904;50.088;11.414;2022-07-29T12:32:40;26.00;89.60
24814;DHT22;12904;50.088;11.414;2022-07-29T12:35:13;26.30;90.10
24814;DHT22;12904;50.088;11.414;2022-07-29T12:37:40;26.80;86.70
24814;DHT22;12904;50.088;11.414;2022-07-29T12:40:08;27.40;82.60
24814;DHT22;12904;50.088;11.414;2022-07-29T12:42:35;27.90;79.40
24814;DHT22;12904;50.088;11.414;2022-07-29T12:45:01;28.40;76.90
24814;DHT22;12904;50.088;11.414;2022-07-29T12:47:29;28.50;74.80
24814;DHT22;12904;50.088;11.414;2022-07-29T12:50:12;28.30;74.50
24814;DHT22;12904;50.088;11.414;2022-07-29T12:52:40;27.90;76.00
24814;DHT22;12904;50.088;11.414;2022-07-29T12:55:06;27.90;77.10
24814;DHT22;12904;50.088;11.414;2022-07-29T12:57:45;27.70;75.20
24814;DHT22;12904;50.088;11.414;2022-07-29T13:00:12;27.60;75.70
24814;DHT22;12904;50.088;11.414;2022-07-29T13:02:39;27.50;77.70
24814;DHT22;12904;50.088;11.414;2022-07-29T13:05:07;27.60;75.80
24814;DHT22;12904;50.088;11.414;2022-07-29T13:07:34;27.80;75.00
24814;DHT22;12904;50.088;11.414;2022-07-29T13:10:15;28.10;70.80
24814;DHT22;12904;50.088;11.414;2022-07-29T13:13:02;28.10;69.50
24814;DHT22;12904;50.088;11.414;2022-07-29T13:15:29;28.20;69.30
24814;DHT22;12904;50.088;11.414;2022-07-29T13:17:54;28.50;68.60
24814;DHT22;12904;50.088;11.414;2022-07-29T13:20:24;29.10;68.20
24814;DHT22;12904;50.088;11.414;2022-07-29T13:22:50;29.50;65.40
24814;DHT22;12904;50.088;11.414;2022-07-29T13:25:25;29.80;63.20
24814;DHT22;12904;50.088;11.414;2022-07-29T13:27:51;29.50;62.20
24814;DHT22;12904;50.088;11.414;2022-07-29T13:30:16;29.80;61.50
24814;DHT22;12904;50.088;11.414;2022-07-29T13:32:42;29.90;61.20
24814;DHT22;12904;50.088;11.414;2022-07-29T13:35:08;29.80;62.50
24814;DHT22;12904;50.088;11.414;2022-07-29T13:37:35;29.80;61.60
24814;DHT22;12904;50.088;11.414;2022-07-29T13:40:04;29.20;59.70
24814;DHT22;12904;50.088;11.414;2022-07-29T13:42:31;28.30;64.50
24814;DHT22;12904;50.088;11.414;2022-07-29T13:44:57;27.80;66.60
24814;DHT22;12904;50.088;11.414;2022-07-29T13:47:23;27.50;66.30
24814;DHT22;12904;50.088;11.414;2022-07-29T13:49:49;27.20;66.20
24814;DHT22;12904;50.088;11.414;2022-07-29T13:52:15;26.80;67.90
24814;DHT22;12904;50.088;11.414;2022-07-29T13:54:42;26.80;69.00
24814;DHT22;12904;50.088;11.414;2022-07-29T13:57:09;27.10;68.70
24814;DHT22;12904;50.088;11.414;2022-07-29T13:59:36;27.40;68.70
24814;DHT22;12904;50.088;11.414;2022-07-29T14:02:01;27.80;67.30
24814;DHT22;12904;50.088;11.414;2022-07-29T14:04:27;28.20;61.30
24814;DHT22;12904;50.088;11.414;2022-07-29T14:06:53;27.90;60.40
24814;DHT22;12904;50.088;11.414;2022-07-29T14:09:18;27.60;61.10
24814;DHT22;12904;50.088;11.414;2022-07-29T14:11:44;27.50;64.90
24814;DHT22;12904;50.088;11.414;2022-07-29T14:14:11;27.30;67.90
24814;DHT22;12904;50.088;11.414;2022-07-29T14:16:37;27.00;64.00
24814;DHT22;12904;50.088;11.414;2022-07-29T14:19:03;26.90;62.60
24814;DHT22;12904;50.088;11.414;2022-07-29T14:21:29;26.80;64.00
24814;DHT22;12904;50.088;11.414;2022-07-29T14:23:54;26.50;67.70
24814;DHT22;12904;50.088;11.414;2022-07-29T14:26:21;26.20;68.90
24814;DHT22;12904;50.088;11.414;2022-07-29T14:28:48;25.90;70.00
24814;DHT22;12904;50.088;11.414;2022-07-29T14:31:14;25.70;69.60
24814;DHT22;12904;50.088;11.414;2022-07-29T14:33:40;25.70;70.20
24814;DHT22;12904;50.088;11.414;2022-07-29T14:36:05;25.60;70.90
24814;DHT22;12904;50.088;11.414;2022-07-29T14:38:31;25.60;70.50
24814;DHT22;12904;50.088;11.414;2022-07-29T14:40:56;25.70;70.40
24814;DHT22;12904;50.088;11.414;2022-07-29T14:43:22;25.90;72.00
24814;DHT22;12904;50.088;11.414;2022-07-29T14:45:48;26.00;70.50
24814;DHT22;12904;50.088;11.414;2022-07-29T14:48:13;26.30;69.00
24814;DHT22;12904;50.088;11.414;2022-07-29T14:50:39;26.30;68.20
24814;DHT22;12904;50.088;11.414;2022-07-29T14:53:05;26.50;67.40
24814;DHT22;12904;50.088;11.414;2022-07-29T14:55:31;26.20;66.60
24814;DHT22;12904;50.088;11.414;2022-07-29T14:57:56;26.00;65.70
24814;DHT22;12904;50.088;11.414;2022-07-29T15:00:24;25.90;67.10
24814;DHT22;12904;50.088;11.414;2022-07-29T15:02:50;26.00;69.00
24814;DHT22;12904;50.088;11.414;2022-07-29T15:05:15;26.30;67.50
24814;DHT22;12904;50.088;11.414;2022-07-29T15:07:41;26.70;67.00
24814;DHT22;12904;50.088;11.414;2022-07-29T15:10:07;27.00;64.90
24814;DHT22;12904;50.088;11.414;2022-07-29T15:12:33;27.10;65.30
24814;DHT22;12904;50.088;11.414;2022-07-29T15:14:58;27.10;66.60
24814;DHT22;12904;50.088;11.414;2022-07-29T15:17:24;27.10;66.20
24814;DHT22;12904;50.088;11.414;2022-07-29T15:19:50;27.20;66.20
24814;DHT22;12904;50.088;11.414;2022-07-29T15:22:16;26.90;64.80
24814;DHT22;12904;50.088;11.414;2022-07-29T15:24:42;26.80;65.60
24814;DHT22;12904;50.088;11.414;2022-07-29T15:27:08;26.80;66.10
24814;DHT22;12904;50.088;11.414;2022-07-29T15:29:42;26.50;64.50
24814;DHT22;12904;50.088;11.414;2022-07-29T15:32:08;26.30;65.50
24814;DHT22;12904;50.088;11.414;2022-07-29T15:34:35;26.10;65.30
24814;DHT22;12904;50.088;11.414;2022-07-29T15:37:00;26.00;65.30
24814;DHT22;12904;50.088;11.414;2022-07-29T15:39:26;26.00;65.30
24814;DHT22;12904;50.088;11.414;2022-07-29T15:41:52;25.80;64.40
24814;DHT22;12904;50.088;11.414;2022-07-29T15:44:18;25.40;66.80
24814;DHT22;12904;50.088;11.414;2022-07-29T15:46:44;25.20;67.90
24814;DHT22;12904;50.088;11.414;2022-07-29T15:49:32;24.90;68.80
24814;DHT22;12904;50.088;11.414;2022-07-29T15:52:04;24.60;70.80
24814;DHT22;12904;50.088;11.414;2022-07-29T15:54:35;24.40;71.30
24814;DHT22;12904;50.088;11.414;2022-07-29T15:57:01;24.30;71.30
24814;DHT22;12904;50.088;11.414;2022-07-29T15:59:27;24.10;72.30
24814;DHT22;12904;50.088;11.414;2022-07-29T16:01:53;24.00;73.20